sensor_id;sensor_type;location;lat;lon;timestamp;temperature;humidity
2647;DHT22;1333;50.958;6.770;2022-10-16T00:00:45;14.20;99.90
2647;DHT22;1333;50.958;6.770;2022-10-16T00:03:11;14.10;99.90
2647;DHT22;1333;50.958;6.770;2022-10-16T00:05:42;14.10;99.90
2647;DHT22;1333;50.958;6.770;2022-10-16T00:08:09;14.10;99.90
2647;DHT22;1333;50.958;6.770;2022-10-16T00:10:35;14.10;99.90
2647;DHT22;1333;50.958;6.770;2022-10-16T00:13:00;14.10;99.90
2647;DHT22;1333;50.958;6.770;2022-10-16T00:15:26;14.10;99.90
2647;DHT22;1333;50.958;6.770;2022-10-16T00:17:52;14.00;99.90
2647;DHT22;1333;50.958;6.770;2022-10-16T00:20:17;14.00;99.90
2647;DHT22;1333;50.958;6.770;2022-10-16T00:22:43;14.00;99.90
2647;DHT22;1333;50.958;6.770;2022-10-16T00:25:08;14.00;99.90
2647;DHT22;1333;50.958;6.770;2022-10-16T00:27:34;14.00;99.90
2647;DHT22;1333;50.958;6.770;2022-10-16T00:29:59;13.90;99.90
2647;DHT22;1333;50.958;6.770;2022-10-16T00:32:25;13.90;99.90
2647;DHT22;1333;50.958;6.770;2022-10-16T00:34:50;13.80;99.90
2647;DHT22;1333;50.958;6.770;2022-10-16T00:37:16;13.80;99.90
2647;DHT22;1333;50.958;6.770;2022-10-16T00:39:41;13.80;99.90
2647;DHT22;1333;50.958;6.770;2022-10-16T00:42:12;13.80;99.90
2647;DHT22;1333;50.958;6.770;2022-10-16T00:47:23;13.70;99.90
2647;DHT22;1333;50.958;6.770;2022-10-16T00:49:51;13.60;99.90
2647;DHT22;1333;50.958;6.770;2022-10-16T00:52:19;13.60;99.90
2647;DHT22;1333;50.958;6.770;2022-10-16T00:54:46;13.60;99.90
2647;DHT22;1333;50.958;6.770;2022-10-16T00:57:12;13.50;99.90
2647;DHT22;1333;50.958;6.770;2022-10-16T00:59:40;13.50;99.90
2647;DHT22;1333;50.958;6.770;2022-10-16T01:02:12;13.50;99.90
2647;DHT22;1333;50.958;6.770;2022-10-16T01:04:44;13.40;99.90
2647;DHT22;1333;50.958;6.770;2022-10-16T01:07:20;13.40;99.90
2647;DHT22;1333;50.958;6.770;2022-10-16T01:15:25;13.20;99.90
2647;DHT22;1333;50.958;6.770;2022-10-16T01:20:31;13.20;99.90
2647;DHT22;1333;50.958;6.770;2022-10-16T01:26:07;13.20;99.90
2647;DHT22;1333;50.958;6.770;2022-10-16T01:31:34;13.20;99.90
2647;DHT22;1333;50.958;6.770;2022-10-16T01:34:05;13.10;99.90
2647;DHT22;1333;50.958;6.770;2022-10-16T01:36:38;13.20;99.90
2647;DHT22;1333;50.958;6.770;2022-10-16T01:39:06;13.20;99.90
2647;DHT22;1333;50.958;6.770;2022-10-16T01:41:42;13.30;99.90
2647;DHT22;1333;50.958;6.770;2022-10-16T01:44:16;13.20;99.90
2647;DHT22;1333;50.958;6.770;2022-10-16T01:46:46;13.20;99.90
2647;DHT22;1333;50.958;6.770;2022-10-16T01:49:13;13.20;99.90
2647;DHT22;1333;50.958;6.770;2022-10-16T01:51:38;13.20;99.90
2647;DHT22;1333;50.958;6.770;2022-10-16T01:54:07;13.10;99.90
2647;DHT22;1333;50.958;6.770;2022-10-16T01:56:34;13.10;99.90
2647;DHT22;1333;50.958;6.770;2022-10-16T01:59:10;13.10;99.90
2647;DHT22;1333;50.958;6.770;2022-10-16T02:01:39;13.10;99.90
2647;DHT22;1333;50.958;6.770;2022-10-16T02:04:32;13.10;99.90
2647;DHT22;1333;50.958;6.770;2022-10-16T02:06:58;13.10;99.90
2647;DHT22;1333;50.958;6.770;2022-10-16T02:09:24;13.20;99.90
2647;DHT22;1333;50.958;6.770;2022-10-16T02:11:52;13.20;99.90
2647;DHT22;1333;50.958;6.770;2022-10-16T02:14:19;13.20;99.90
2647;DHT22;1333;50.958;6.770;2022-10-16T02:16:46;13.30;99.90
2647;DHT22;1333;50.958;6.770;2022-10-16T02:19:13;13.40;99.90
2647;DHT22;1333;50.958;6.770;2022-10-16T02:21:43;13.30;99.90
2647;DHT22;1333;50.958;6.770;2022-10-16T02:24:19;13.40;99.90
2647;DHT22;1333;50.958;6.770;2022-10-16T02:26:52;13.40;99.90
2647;DHT22;1333;50.958;6.770;2022-10-16T02:29:23;13.40;99.90
2647;DHT22;1333;50.958;6.770;2022-10-16T02:32:00;13.40;99.90
2647;DHT22;1333;50.958;6.770;2022-10-16T02:34:28;13.50;99.90
2647;DHT22;1333;50.958;6.770;2022-10-16T02:36:56;13.50;99.90
2647;DHT22;1333;50.958;6.770;2022-10-16T02:39:22;13.60;99.90
2647;DHT22;1333;50.958;6.770;2022-10-16T02:41:48;13.60;99.90
2647;DHT22;1333;50.958;6.770;2022-10-16T02:44:14;13.60;99.90
2647;DHT22;1333;50.958;6.770;2022-10-16T02:46:40;13.70;99.90
2647;DHT22;1333;50.958;6.770;2022-10-16T02:49:05;13.70;99.90
2647;DHT22;1333;50.958;6.770;2022-10-16T02:51:31;13.70;99.90
2647;DHT22;1333;50.958;6.770;2022-10-16T02:53:56;13.80;99.90
2647;DHT22;1333;50.958;6.770;2022-10-16T02:56:22;13.80;99.90
2647;DHT22;1333;50.958;6.770;2022-10-16T02:58:47;13.80;99.90
2647;DHT22;1333;50.958;6.770;2022-10-16T03:01:13;13.80;99.90
2647;DHT22;1333;50.958;6.770;2022-10-16T03:03:39;13.70;99.90
2647;DHT22;1333;50.958;6.770;2022-10-16T03:06:05;13.70;99.90
2647;DHT22;1333;50.958;6.770;2022-10-16T03:08:31;13.60;99.90
2647;DHT22;1333;50.958;6.770;2022-10-16T03:10:56;13.60;99.90
2647;DHT22;1333;50.958;6.770;2022-10-16T03:13:22;13.50;99.90
2647;DHT22;1333;50.958;6.770;2022-10-16T03:15:48;13.40;99.90
2647;DHT22;1333;50.958;6.770;2022-10-16T03:18:13;13.40;99.90
2647;DHT22;1333;50.958;6.770;2022-10-16T03:20:39;13.40;99.90
2647;DHT22;1333;50.958;6.770;2022-10-16T03:23:05;13.40;99.90
2647;DHT22;1333;50.958;6.770;2022-10-16T03:25:32;13.40;99.90
2647;DHT22;1333;50.958;6.770;2022-10-16T03:27:57;13.40;99.90
2647;DHT22;1333;50.958;6.770;2022-10-16T03:30:23;13.40;99.90
2647;DHT22;1333;50.958;6.770;2022-10-16T03:32:48;13.40;99.90
2647;DHT22;1333;50.958;6.770;2022-10-16T03:35:14;13.30;99.90
2647;DHT22;1333;50.958;6.770;2022-10-16T03:37:39;13.40;99.90
2647;DHT22;1333;50.958;6.770;2022-10-16T03:40:05;13.40;99.90
2647;DHT22;1333;50.958;6.770;2022-10-16T03:42:31;13.40;99.90
2647;DHT22;1333;50.958;6.770;2022-10-16T03:44:56;13.40;99.90
2647;DHT22;1333;50.958;6.770;2022-10-16T03:47:22;13.50;99.90
2647;DHT22;1333;50.958;6.770;2022-10-16T03:49:49;13.50;99.90
2647;DHT22;1333;50.958;6.770;2022-10-16T03:52:15;13.50;99.90
2647;DHT22;1333;50.958;6.770;2022-10-16T03:54:41;13.50;99.90
2647;DHT22;1333;50.958;6.770;2022-10-16T03:57:06;13.60;99.90
2647;DHT22;1333;50.958;6.770;2022-10-16T03:59:32;13.60;99.90
2647;DHT22;1333;50.958;6.770;2022-10-16T04:01:57;13.60;99.90
2647;DHT22;1333;50.958;6.770;2022-10-16T04:04:23;13.60;99.90
2647;DHT22;1333;50.958;6.770;2022-10-16T04:06:49;13.60;99.90
2647;DHT22;1333;50.958;6.770;2022-10-16T04:09:15;13.60;99.90
2647;DHT22;1333;50.958;6.770;2022-10-16T04:11:40;13.70;99.90
2647;DHT22;1333;50.958;6.770;2022-10-16T04:14:06;13.70;99.90
2647;DHT22;1333;50.958;6.770;2022-10-16T04:16:31;13.70;99.90
2647;DHT22;1333;50.958;6.770;2022-10-16T04:18:57;13.70;99.90
2647;DHT22;1333;50.958;6.770;2022-10-16T04:21:22;13.70;99.90
2647;DHT22;1333;50.958;6.770;2022-10-16T04:23:48;13.70;99.90
2647;DHT22;1333;50.958;6.770;2022-10-16T04:26:14;13.70;99.90
2647;DHT22;1333;50.958;6.770;2022-10-16T04:28:40;13.60;99.90
2647;DHT22;1333;50.958;6.770;2022-10-16T04:31:06;13.60;99.90
2647;DHT22;1333;50.958;6.770;2022-10-16T04:33:32;13.50;99.90
2647;DHT22;1333;50.958;6.770;2022-10-16T04:35:59;13.50;99.90
2647;DHT22;1333;50.958;6.770;2022-10-16T04:38:25;13.40;99.90
2647;DHT22;1333;50.958;6.770;2022-10-16T04:40:50;13.50;99.90
2647;DHT22;1333;50.958;6.770;2022-10-16T04:43:16;13.40;99.90
2647;DHT22;1333;50.958;6.770;2022-10-16T04:45:42;13.40;99.90
2647;DHT22;1333;50.958;6.770;2022-10-16T04:48:07;13.40;99.90
2647;DHT22;1333;50.958;6.770;2022-10-16T04:50:33;13.40;99.90
2647;DHT22;1333;50.958;6.770;2022-10-16T04:52:58;13.40;99.90
2647;DHT22;1333;50.958;6.770;2022-10-16T04:55:24;13.30;99.90
2647;DHT22;1333;50.958;6.770;2022-10-16T04:57:50;13.30;99.90
2647;DHT22;1333;50.958;6.770;2022-10-16T05:00:15;13.30;99.90
2647;DHT22;1333;50.958;6.770;2022-10-16T05:02:41;13.30;99.90
2647;DHT22;1333;50.958;6.770;2022-10-16T05:05:07;13.30;99.90
2647;DHT22;1333;50.958;6.770;2022-10-16T05:07:32;13.30;99.90
2647;DHT22;1333;50.958;6.770;2022-10-16T05:09:58;13.20;99.90
2647;DHT22;1333;50.958;6.770;2022-10-16T05:12:23;13.20;99.90
2647;DHT22;1333;50.958;6.770;2022-10-16T05:14:49;13.20;99.90
2647;DHT22;1333;50.958;6.770;2022-10-16T05:17:14;13.20;99.90
2647;DHT22;1333;50.958;6.770;2022-10-16T05:19:40;13.20;99.90
2647;DHT22;1333;50.958;6.770;2022-10-16T05:22:05;13.20;99.90
2647;DHT22;1333;50.958;6.770;2022-10-16T05:24:31;13.20;99.90
2647;DHT22;1333;50.958;6.770;2022-10-16T05:26:56;13.20;99.90
2647;DHT22;1333;50.958;6.770;2022-10-16T05:29:22;13.10;99.90
2647;DHT22;1333;50.958;6.770;2022-10-16T05:31:50;13.10;99.90
2647;DHT22;1333;50.958;6.770;2022-10-16T05:34:16;13.10;99.90
2647;DHT22;1333;50.958;6.770;2022-10-16T05:36:42;13.10;99.90
2647;DHT22;1333;50.958;6.770;2022-10-16T05:39:07;13.00;99.90
2647;DHT22;1333;50.958;6.770;2022-10-16T05:41:33;13.00;99.90
2647;DHT22;1333;50.958;6.770;2022-10-16T05:43:58;13.00;99.90
2647;DHT22;1333;50.958;6.770;2022-10-16T05:46:24;13.00;99.90
2647;DHT22;1333;50.958;6.770;2022-10-16T05:48:52;13.00;99.90
2647;DHT22;1333;50.958;6.770;2022-10-16T05:51:18;12.90;99.90
2647;DHT22;1333;50.958;6.770;2022-10-16T05:53:43;12.90;99.90
2647;DHT22;1333;50.958;6.770;2022-10-16T05:56:10;12.80;99.90
2647;DHT22;1333;50.958;6.770;2022-10-16T05:58:37;12.70;99.90
2647;DHT22;1333;50.958;6.770;2022-10-16T06:01:09;12.70;99.90
2647;DHT22;1333;50.958;6.770;2022-10-16T06:03:35;12.70;99.90
2647;DHT22;1333;50.958;6.770;2022-10-16T06:06:08;12.70;99.90
2647;DHT22;1333;50.958;6.770;2022-10-16T06:08:34;12.60;99.90
2647;DHT22;1333;50.958;6.770;2022-10-16T06:11:08;12.60;99.90
2647;DHT22;1333;50.958;6.770;2022-10-16T06:13:34;12.50;99.90
2647;DHT22;1333;50.958;6.770;2022-10-16T06:16:00;12.50;99.90
2647;DHT22;1333;50.958;6.770;2022-10-16T06:18:27;12.50;99.90
2647;DHT22;1333;50.958;6.770;2022-10-16T06:20:54;12.50;99.90
2647;DHT22;1333;50.958;6.770;2022-10-16T06:23:19;12.60;99.90
2647;DHT22;1333;50.958;6.770;2022-10-16T06:25:45;12.60;99.90
2647;DHT22;1333;50.958;6.770;2022-10-16T06:28:11;12.70;99.90
2647;DHT22;1333;50.958;6.770;2022-10-16T06:30:36;12.70;99.90
2647;DHT22;1333;50.958;6.770;2022-10-16T06:33:02;12.80;99.90
2647;DHT22;1333;50.958;6.770;2022-10-16T06:35:27;12.90;99.90
2647;DHT22;1333;50.958;6.770;2022-10-16T06:37:54;13.00;99.90
2647;DHT22;1333;50.958;6.770;2022-10-16T06:40:20;13.10;99.90
2647;DHT22;1333;50.958;6.770;2022-10-16T06:42:45;13.20;99.90
2647;DHT22;1333;50.958;6.770;2022-10-16T06:45:11;13.40;99.90
2647;DHT22;1333;50.958;6.770;2022-10-16T06:47:36;13.50;99.90
2647;DHT22;1333;50.958;6.770;2022-10-16T06:50:02;13.60;99.90
2647;DHT22;1333;50.958;6.770;2022-10-16T06:52:29;13.70;99.90
2647;DHT22;1333;50.958;6.770;2022-10-16T06:54:54;13.80;99.90
2647;DHT22;1333;50.958;6.770;2022-10-16T06:57:20;13.90;99.90
2647;DHT22;1333;50.958;6.770;2022-10-16T06:59:45;14.00;99.90
2647;DHT22;1333;50.958;6.770;2022-10-16T07:02:11;14.10;99.90
2647;DHT22;1333;50.958;6.770;2022-10-16T07:04:36;14.20;99.90
2647;DHT22;1333;50.958;6.770;2022-10-16T07:07:02;14.30;99.90
2647;DHT22;1333;50.958;6.770;2022-10-16T07:09:28;14.40;99.90
2647;DHT22;1333;50.958;6.770;2022-10-16T07:11:53;14.60;99.90
2647;DHT22;1333;50.958;6.770;2022-10-16T07:14:20;14.70;99.90
2647;DHT22;1333;50.958;6.770;2022-10-16T07:16:47;14.90;99.90
2647;DHT22;1333;50.958;6.770;2022-10-16T07:19:13;15.00;99.90
2647;DHT22;1333;50.958;6.770;2022-10-16T07:21:40;15.20;99.90
2647;DHT22;1333;50.958;6.770;2022-10-16T07:24:10;15.30;99.90
2647;DHT22;1333;50.958;6.770;2022-10-16T07:26:37;15.50;99.90
2647;DHT22;1333;50.958;6.770;2022-10-16T07:29:15;15.70;99.90
2647;DHT22;1333;50.958;6.770;2022-10-16T07:31:41;15.90;99.90
2647;DHT22;1333;50.958;6.770;2022-10-16T07:34:07;16.00;99.90
2647;DHT22;1333;50.958;6.770;2022-10-16T07:36:32;16.10;99.90
2647;DHT22;1333;50.958;6.770;2022-10-16T07:38:58;16.20;99.90
2647;DHT22;1333;50.958;6.770;2022-10-16T07:41:23;16.20;99.90
2647;DHT22;1333;50.958;6.770;2022-10-16T07:43:51;16.20;99.90
2647;DHT22;1333;50.958;6.770;2022-10-16T07:46:18;16.10;99.90
2647;DHT22;1333;50.958;6.770;2022-10-16T07:48:44;16.00;99.90
2647;DHT22;1333;50.958;6.770;2022-10-16T07:51:14;16.10;99.90
2647;DHT22;1333;50.958;6.770;2022-10-16T07:53:40;16.10;99.90
2647;DHT22;1333;50.958;6.770;2022-10-16T07:56:07;16.00;99.90
2647;DHT22;1333;50.958;6.770;2022-10-16T07:58:34;15.90;99.90
2647;DHT22;1333;50.958;6.770;2022-10-16T08:01:07;15.80;99.90
2647;DHT22;1333;50.958;6.770;2022-10-16T08:03:33;16.00;99.90
2647;DHT22;1333;50.958;6.770;2022-10-16T08:05:59;16.30;99.90
2647;DHT22;1333;50.958;6.770;2022-10-16T08:08:26;16.60;99.90
2647;DHT22;1333;50.958;6.770;2022-10-16T08:10:52;16.70;99.90
2647;DHT22;1333;50.958;6.770;2022-10-16T08:13:17;16.80;99.90
2647;DHT22;1333;50.958;6.770;2022-10-16T08:15:44;17.00;99.90
2647;DHT22;1333;50.958;6.770;2022-10-16T08:18:10;17.30;99.90
2647;DHT22;1333;50.958;6.770;2022-10-16T08:20:36;17.80;99.90
2647;DHT22;1333;50.958;6.770;2022-10-16T08:23:02;18.50;99.90
2647;DHT22;1333;50.958;6.770;2022-10-16T08:25:28;19.40;99.90
2647;DHT22;1333;50.958;6.770;2022-10-16T08:27:54;20.60;99.90
2647;DHT22;1333;50.958;6.770;2022-10-16T08:30:21;21.70;99.90
2647;DHT22;1333;50.958;6.770;2022-10-16T08:32:47;22.90;99.90
2647;DHT22;1333;50.958;6.770;2022-10-16T08:35:16;24.10;99.90
2647;DHT22;1333;50.958;6.770;2022-10-16T08:37:42;24.80;99.90
2647;DHT22;1333;50.958;6.770;2022-10-16T08:40:18;25.70;99.90
2647;DHT22;1333;50.958;6.770;2022-10-16T08:51:35;27.60;75.60
2647;DHT22;1333;50.958;6.770;2022-10-16T08:54:06;27.20;77.50
2647;DHT22;1333;50.958;6.770;2022-10-16T08:56:36;26.20;84.20
2647;DHT22;1333;50.958;6.770;2022-10-16T08:59:06;26.10;88.70
2647;DHT22;1333;50.958;6.770;2022-10-16T09:01:42;26.20;90.50
2647;DHT22;1333;50.958;6.770;2022-10-16T09:12:59;29.90;60.60
2647;DHT22;1333;50.958;6.770;2022-10-16T09:21:18;28.90;59.40
2647;DHT22;1333;50.958;6.770;2022-10-16T09:23:44;27.80;60.50
2647;DHT22;1333;50.958;6.770;2022-10-16T09:26:13;26.90;66.10
2647;DHT22;1333;50.958;6.770;2022-10-16T09:28:39;27.20;70.30
2647;DHT22;1333;50.958;6.770;2022-10-16T09:31:07;27.80;70.60
2647;DHT22;1333;50.958;6.770;2022-10-16T09:33:36;29.10;63.10
2647;DHT22;1333;50.958;6.770;2022-10-16T09:36:04;30.60;59.60
2647;DHT22;1333;50.958;6.770;2022-10-16T09:38:32;31.90;56.70
2647;DHT22;1333;50.958;6.770;2022-10-16T09:41:20;32.90;52.30
2647;DHT22;1333;50.958;6.770;2022-10-16T09:46:35;33.90;47.10
2647;DHT22;1333;50.958;6.770;2022-10-16T09:49:03;34.10;46.00
2647;DHT22;1333;50.958;6.770;2022-10-16T09:51:34;34.40;46.40
2647;DHT22;1333;50.958;6.770;2022-10-16T09:56:36;34.90;45.80
2647;DHT22;1333;50.958;6.770;2022-10-16T09:59:17;35.70;44.70
2647;DHT22;1333;50.958;6.770;2022-10-16T10:01:51;36.50;43.00
2647;DHT22;1333;50.958;6.770;2022-10-16T10:04:18;37.00;43.00
2647;DHT22;1333;50.958;6.770;2022-10-16T10:06:47;38.20;41.70
2647;DHT22;1333;50.958;6.770;2022-10-16T10:09:39;38.80;40.30
2647;DHT22;1333;50.958;6.770;2022-10-16T10:12:06;39.80;40.00
2647;DHT22;1333;50.958;6.770;2022-10-16T10:14:49;39.30;37.90
2647;DHT22;1333;50.958;6.770;2022-10-16T10:17:17;39.70;37.70
2647;DHT22;1333;50.958;6.770;2022-10-16T10:22:38;39.40;37.00
2647;DHT22;1333;50.958;6.770;2022-10-16T10:27:39;38.20;35.40
2647;DHT22;1333;50.958;6.770;2022-10-16T10:30:23;36.30;36.70
2647;DHT22;1333;50.958;6.770;2022-10-16T10:46:56;33.20;43.20
2647;DHT22;1333;50.958;6.770;2022-10-16T10:55:13;34.00;43.70
2647;DHT22;1333;50.958;6.770;2022-10-16T11:01:15;35.20;41.20
2647;DHT22;1333;50.958;6.770;2022-10-16T11:06:46;37.60;39.30
2647;DHT22;1333;50.958;6.770;2022-10-16T11:09:18;37.40;38.30
2647;DHT22;1333;50.958;6.770;2022-10-16T11:12:15;36.40;37.90
2647;DHT22;1333;50.958;6.770;2022-10-16T11:14:53;35.20;38.90
2647;DHT22;1333;50.958;6.770;2022-10-16T11:17:32;34.80;39.50
2647;DHT22;1333;50.958;6.770;2022-10-16T11:20:48;34.20;40.70
2647;DHT22;1333;50.958;6.770;2022-10-16T11:23:13;34.20;41.20
2647;DHT22;1333;50.958;6.770;2022-10-16T11:25:36;35.20;40.90
2647;DHT22;1333;50.958;6.770;2022-10-16T11:28:14;35.80;40.10
2647;DHT22;1333;50.958;6.770;2022-10-16T11:30:43;35.60;39.80
2647;DHT22;1333;50.958;6.770;2022-10-16T11:36:03;38.00;37.70
2647;DHT22;1333;50.958;6.770;2022-10-16T11:46:40;40.80;35.80
2647;DHT22;1333;50.958;6.770;2022-10-16T11:49:16;41.50;33.10
2647;DHT22;1333;50.958;6.770;2022-10-16T11:51:50;41.20;32.80
2647;DHT22;1333;50.958;6.770;2022-10-16T11:54:32;40.90;32.00
2647;DHT22;1333;50.958;6.770;2022-10-16T11:57:07;39.80;32.50
2647;DHT22;1333;50.958;6.770;2022-10-16T11:59:59;38.10;33.50
2647;DHT22;1333;50.958;6.770;2022-10-16T12:02:50;38.30;34.40
2647;DHT22;1333;50.958;6.770;2022-10-16T12:05:50;38.30;34.90
2647;DHT22;1333;50.958;6.770;2022-10-16T12:08:17;37.50;34.90
2647;DHT22;1333;50.958;6.770;2022-10-16T12:10:45;36.50;36.30
2647;DHT22;1333;50.958;6.770;2022-10-16T12:16:21;33.90;37.90
2647;DHT22;1333;50.958;6.770;2022-10-16T12:18:48;32.70;39.00
2647;DHT22;1333;50.958;6.770;2022-10-16T12:21:15;32.10;40.80
2647;DHT22;1333;50.958;6.770;2022-10-16T12:23:49;31.80;41.60
2647;DHT22;1333;50.958;6.770;2022-10-16T12:26:27;31.80;42.00
2647;DHT22;1333;50.958;6.770;2022-10-16T12:28:54;31.40;41.90
2647;DHT22;1333;50.958;6.770;2022-10-16T12:31:20;31.30;42.70
2647;DHT22;1333;50.958;6.770;2022-10-16T12:34:03;31.40;42.40
2647;DHT22;1333;50.958;6.770;2022-10-16T12:36:32;30.80;42.20
2647;DHT22;1333;50.958;6.770;2022-10-16T12:38:58;30.40;42.90
2647;DHT22;1333;50.958;6.770;2022-10-16T12:41:35;30.10;43.50
2647;DHT22;1333;50.958;6.770;2022-10-16T12:44:02;30.00;44.80
2647;DHT22;1333;50.958;6.770;2022-10-16T12:51:46;32.80;43.70
2647;DHT22;1333;50.958;6.770;2022-10-16T12:54:41;33.30;42.70
2647;DHT22;1333;50.958;6.770;2022-10-16T13:05:12;32.40;41.30
2647;DHT22;1333;50.958;6.770;2022-10-16T13:07:44;32.20;41.70
2647;DHT22;1333;50.958;6.770;2022-10-16T13:15:28;34.80;40.60
2647;DHT22;1333;50.958;6.770;2022-10-16T13:21:10;34.80;40.30
2647;DHT22;1333;50.958;6.770;2022-10-16T13:23:54;34.00;40.70
2647;DHT22;1333;50.958;6.770;2022-10-16T13:29:16;33.30;41.10
2647;DHT22;1333;50.958;6.770;2022-10-16T13:31:43;34.30;42.80
2647;DHT22;1333;50.958;6.770;2022-10-16T13:34:15;35.70;41.20
2647;DHT22;1333;50.958;6.770;2022-10-16T13:36:48;36.80;39.60
2647;DHT22;1333;50.958;6.770;2022-10-16T13:39:22;37.50;38.00
2647;DHT22;1333;50.958;6.770;2022-10-16T13:42:06;38.40;37.60
2647;DHT22;1333;50.958;6.770;2022-10-16T13:44:39;39.30;37.30
2647;DHT22;1333;50.958;6.770;2022-10-16T13:47:10;40.10;36.50
2647;DHT22;1333;50.958;6.770;2022-10-16T13:49:37;39.40;34.40
2647;DHT22;1333;50.958;6.770;2022-10-16T13:52:02;38.10;35.10
2647;DHT22;1333;50.958;6.770;2022-10-16T13:54:28;36.50;35.70
2647;DHT22;1333;50.958;6.770;2022-10-16T13:57:04;35.20;36.60
2647;DHT22;1333;50.958;6.770;2022-10-16T13:59:34;34.90;38.30
2647;DHT22;1333;50.958;6.770;2022-10-16T14:02:08;34.80;38.70
2647;DHT22;1333;50.958;6.770;2022-10-16T14:04:39;34.70;38.40
2647;DHT22;1333;50.958;6.770;2022-10-16T14:07:05;33.60;38.80
2647;DHT22;1333;50.958;6.770;2022-10-16T14:09:31;32.70;40.70
2647;DHT22;1333;50.958;6.770;2022-10-16T14:12:00;32.20;41.50
2647;DHT22;1333;50.958;6.770;2022-10-16T14:14:52;31.10;42.40
2647;DHT22;1333;50.958;6.770;2022-10-16T14:17:27;30.00;43.00
2647;DHT22;1333;50.958;6.770;2022-10-16T14:19:56;29.00;44.30
2647;DHT22;1333;50.958;6.770;2022-10-16T14:25:15;27.70;47.70
2647;DHT22;1333;50.958;6.770;2022-10-16T14:27:45;27.30;49.00
2647;DHT22;1333;50.958;6.770;2022-10-16T14:30:17;27.00;50.70
2647;DHT22;1333;50.958;6.770;2022-10-16T14:33:18;26.60;51.70
2647;DHT22;1333;50.958;6.770;2022-10-16T14:35:45;26.20;52.60
2647;DHT22;1333;50.958;6.770;2022-10-16T14:38:19;25.90;53.90
2647;DHT22;1333;50.958;6.770;2022-10-16T14:40:48;25.70;54.10
2647;DHT22;1333;50.958;6.770;2022-10-16T14:43:36;25.40;54.10
2647;DHT22;1333;50.958;6.770;2022-10-16T14:46:05;25.00;55.00
2647;DHT22;1333;50.958;6.770;2022-10-16T14:48:32;24.60;55.90
2647;DHT22;1333;50.958;6.770;2022-10-16T14:50:57;24.30;57.10
2647;DHT22;1333;50.958;6.770;2022-10-16T14:53:23;24.00;58.70
2647;DHT22;1333;50.958;6.770;2022-10-16T14:55:49;23.80;61.00
2647;DHT22;1333;50.958;6.770;2022-10-16T14:58:17;23.60;65.20
2647;DHT22;1333;50.958;6.770;2022-10-16T15:00:43;23.40;71.00
2647;DHT22;1333;50.958;6.770;2022-10-16T15:03:09;23.30;83.60
2647;DHT22;1333;50.958;6.770;2022-10-16T15:05:35;23.20;94.80
2647;DHT22;1333;50.958;6.770;2022-10-16T15:08:00;23.10;99.60
2647;DHT22;1333;50.958;6.770;2022-10-16T15:10:27;23.00;99.90
2647;DHT22;1333;50.958;6.770;2022-10-16T15:12:53;23.00;99.90
2647;DHT22;1333;50.958;6.770;2022-10-16T15:15:33;22.90;99.90
2647;DHT22;1333;50.958;6.770;2022-10-16T15:17:59;22.80;99.90
2647;DHT22;1333;50.958;6.770;2022-10-16T15:20:34;22.60;99.90
2647;DHT22;1333;50.958;6.770;2022-10-16T15:23:05;22.50;99.90
2647;DHT22;1333;50.958;6.770;2022-10-16T15:28:09;22.30;99.90
2647;DHT22;1333;50.958;6.770;2022-10-16T15:30:35;22.10;99.90
2647;DHT22;1333;50.958;6.770;2022-10-16T15:33:01;22.00;99.90
2647;DHT22;1333;50.958;6.770;2022-10-16T15:35:27;21.80;99.90
2647;DHT22;1333;50.958;6.770;2022-10-16T15:37:53;21.70;99.90
2647;DHT22;1333;50.958;6.770;2022-10-16T15:40:19;21.60;99.90
2647;DHT22;1333;50.958;6.770;2022-10-16T15:42:45;21.40;99.90
2647;DHT22;1333;50.958;6.770;2022-10-16T15:45:12;21.30;99.90
2647;DHT22;1333;50.958;6.770;2022-10-16T15:47:38;21.20;99.90
2647;DHT22;1333;50.958;6.770;2022-10-16T15:50:04;21.20;99.90
2647;DHT22;1333;50.958;6.770;2022-10-16T15:52:30;21.10;99.90
2647;DHT22;1333;50.958;6.770;2022-10-16T15:54:57;21.10;99.90
2647;DHT22;1333;50.958;6.770;2022-10-16T15:57:23;21.00;99.90
2647;DHT22;1333;50.958;6.770;2022-10-16T15:59:49;20.90;99.90
2647;DHT22;1333;50.958;6.770;2022-10-16T16:02:15;20.80;99.90
2647;DHT22;1333;50.958;6.770;2022-10-16T16:04:40;20.70;99.90
2647;DHT22;1333;50.958;6.770;2022-10-16T16:07:06;20.70;99.90
2647;DHT22;1333;50.958;6.770;2022-10-16T16:09:35;20.60;99.90
2647;DHT22;1333;50.958;6.770;2022-10-16T16:12:00;20.50;99.90
2647;DHT22;1333;50.958;6.770;2022-10-16T16:14:26;20.50;99.90
2647;DHT22;1333;50.958;6.770;2022-10-16T16:16:54;20.40;99.90
2647;DHT22;1333;50.958;6.770;2022-10-16T16:19:19;20.30;99.90
2647;DHT22;1333;50.958;6.770;2022-10-16T16:21:46;20.20;99.90
2647;DHT22;1333;50.958;6.770;2022-10-16T16:24:12;20.10;99.90
2647;DHT22;1333;50.958;6.770;2022-10-16T16:26:38;20.10;99.90
2647;DHT22;1333;50.958;6.770;2022-10-16T16:29:05;20.10;99.90
2647;DHT22;1333;50.958;6.770;2022-10-16T16:31:31;20.00;99.90
2647;DHT22;1333;50.958;6.770;2022-10-16T16:33:57;20.00;99.90
2647;DHT22;1333;50.958;6.770;2022-10-16T16:36:24;19.80;99.90
2647;DHT22;1333;50.958;6.770;2022-10-16T16:38:50;19.70;99.90
2647;DHT22;1333;50.958;6.770;2022-10-16T16:41:17;19.60;99.90
2647;DHT22;1333;50.958;6.770;2022-10-16T16:43:44;19.50;99.90
2647;DHT22;1333;50.958;6.770;2022-10-16T16:46:10;19.50;99.90
2647;DHT22;1333;50.958;6.770;2022-10-16T16:48:36;19.30;99.90
2647;DHT22;1333;50.958;6.770;2022-10-16T16:51:07;19.30;99.90
2647;DHT22;1333;50.958;6.770;2022-10-16T16:53:34;19.30;99.90
2647;DHT22;1333;50.958;6.770;2022-10-16T16:56:05;19.20;99.90
2647;DHT22;1333;50.958;6.770;2022-10-16T16:58:31;19.10;99.90
2647;DHT22;1333;50.958;6.770;2022-10-16T17:00:58;19.10;99.90
2647;DHT22;1333;50.958;6.770;2022-10-16T17:03:34;19.00;99.90
2647;DHT22;1333;50.958;6.770;2022-10-16T17:06:02;19.00;99.90
2647;DHT22;1333;50.958;6.770;2022-10-16T17:08:29;19.00;99.90
2647;DHT22;1333;50.958;6.770;2022-10-16T17:10:55;19.00;99.90
2647;DHT22;1333;50.958;6.770;2022-10-16T17:13:23;19.00;99.90
2647;DHT22;1333;50.958;6.770;2022-10-16T17:15:49;19.00;99.90
2647;DHT22;1333;50.958;6.770;2022-10-16T17:18:15;19.00;99.90
2647;DHT22;1333;50.958;6.770;2022-10-16T17:20:41;18.90;99.90
2647;DHT22;1333;50.958;6.770;2022-10-16T17:23:07;19.00;99.90
2647;DHT22;1333;50.958;6.770;2022-10-16T17:25:37;18.90;99.90
2647;DHT22;1333;50.958;6.770;2022-10-16T17:28:03;18.90;99.90
2647;DHT22;1333;50.958;6.770;2022-10-16T17:30:29;18.90;99.90
2647;DHT22;1333;50.958;6.770;2022-10-16T17:32:54;18.90;99.90
2647;DHT22;1333;50.958;6.770;2022-10-16T17:35:20;18.90;99.90
2647;DHT22;1333;50.958;6.770;2022-10-16T17:37:45;18.90;99.90
2647;DHT22;1333;50.958;6.770;2022-10-16T17:40:11;18.90;99.90
2647;DHT22;1333;50.958;6.770;2022-10-16T17:42:37;18.80;99.90
2647;DHT22;1333;50.958;6.770;2022-10-16T17:45:02;18.90;99.90
2647;DHT22;1333;50.958;6.770;2022-10-16T17:47:28;18.80;99.90
2647;DHT22;1333;50.958;6.770;2022-10-16T17:49:53;18.90;99.90
2647;DHT22;1333;50.958;6.770;2022-10-16T17:52:19;18.90;99.90
2647;DHT22;1333;50.958;6.770;2022-10-16T17:54:45;18.80;99.90
2647;DHT22;1333;50.958;6.770;2022-10-16T17:57:10;18.80;99.90
2647;DHT22;1333;50.958;6.770;2022-10-16T17:59:36;18.80;99.90
2647;DHT22;1333;50.958;6.770;2022-10-16T18:02:02;18.70;99.90
2647;DHT22;1333;50.958;6.770;2022-10-16T18:04:28;18.70;99.90
2647;DHT22;1333;50.958;6.770;2022-10-16T18:06:53;18.70;99.90
2647;DHT22;1333;50.958;6.770;2022-10-16T18:09:21;18.60;99.90
2647;DHT22;1333;50.958;6.770;2022-10-16T18:11:48;18.60;99.90